sensor_id;sensor_type;location;lat;lon;timestamp;P1;durP1;ratioP1;P2;durP2;ratioP2
5912;SDS011;2982;42.684;23.356;2023-05-31T00:00:01;7.63;;;6.97;;
5912;SDS011;2982;42.684;23.356;2023-05-31T00:02:27;8.10;;;7.40;;
5912;SDS011;2982;42.684;23.356;2023-05-31T00:04:52;8.68;;;7.72;;
5912;SDS011;2982;42.684;23.356;2023-05-31T00:07:18;6.97;;;6.38;;
5912;SDS011;2982;42.684;23.356;2023-05-31T00:09:43;10.20;;;7.13;;
5912;SDS011;2982;42.684;23.356;2023-05-31T00:12:08;9.48;;;7.72;;
5912;SDS011;2982;42.684;23.356;2023-05-31T00:14:33;8.52;;;7.18;;
5912;SDS011;2982;42.684;23.356;2023-05-31T00:16:59;8.80;;;7.97;;
5912;SDS011;2982;42.684;23.356;2023-05-31T00:19:24;7.65;;;6.90;;
5912;SDS011;2982;42.684;23.356;2023-05-31T00:21:49;7.18;;;6.30;;
5912;SDS011;2982;42.684;23.356;2023-05-31T00:24:15;7.03;;;6.53;;
5912;SDS011;2982;42.684;23.356;2023-05-31T00:26:41;6.93;;;6.22;;
5912;SDS011;2982;42.684;23.356;2023-05-31T00:29:06;6.68;;;6.15;;
5912;SDS011;2982;42.684;23.356;2023-05-31T00:31:31;6.95;;;6.28;;
5912;SDS011;2982;42.684;23.356;2023-05-31T00:33:57;6.63;;;6.03;;
5912;SDS011;2982;42.684;23.356;2023-05-31T00:36:22;6.57;;;5.93;;
5912;SDS011;2982;42.684;23.356;2023-05-31T00:38:48;6.55;;;5.78;;
5912;SDS011;2982;42.684;23.356;2023-05-31T00:41:14;6.80;;;6.20;;
5912;SDS011;2982;42.684;23.356;2023-05-31T00:43:39;6.57;;;5.95;;
5912;SDS011;2982;42.684;23.356;2023-05-31T00:46:04;6.88;;;6.18;;
5912;SDS011;2982;42.684;23.356;2023-05-31T00:48:31;7.47;;;6.95;;
5912;SDS011;2982;42.684;23.356;2023-05-31T00:50:56;7.40;;;6.80;;
5912;SDS011;2982;42.684;23.356;2023-05-31T00:53:22;8.45;;;7.65;;
5912;SDS011;2982;42.684;23.356;2023-05-31T00:55:48;8.45;;;7.57;;
5912;SDS011;2982;42.684;23.356;2023-05-31T00:58:14;7.78;;;7.03;;
5912;SDS011;2982;42.684;23.356;2023-05-31T01:00:41;8.80;;;7.50;;
5912;SDS011;2982;42.684;23.356;2023-05-31T01:03:07;13.27;;;8.02;;
5912;SDS011;2982;42.684;23.356;2023-05-31T01:05:32;9.20;;;8.40;;
5912;SDS011;2982;42.684;23.356;2023-05-31T01:07:57;11.30;;;10.07;;
5912;SDS011;2982;42.684;23.356;2023-05-31T01:10:22;10.73;;;9.43;;
5912;SDS011;2982;42.684;23.356;2023-05-31T01:15:19;13.20;;;11.77;;
5912;SDS011;2982;42.684;23.356;2023-05-31T01:20:17;11.10;;;10.05;;
5912;SDS011;2982;42.684;23.356;2023-05-31T01:22:50;13.25;;;11.98;;
5912;SDS011;2982;42.684;23.356;2023-05-31T01:25:26;13.77;;;12.35;;
5912;SDS011;2982;42.684;23.356;2023-05-31T01:28:00;13.38;;;11.75;;
5912;SDS011;2982;42.684;23.356;2023-05-31T01:30:27;15.20;;;12.55;;
5912;SDS011;2982;42.684;23.356;2023-05-31T01:32:56;13.63;;;11.80;;
5912;SDS011;2982;42.684;23.356;2023-05-31T01:35:24;17.17;;;11.43;;
5912;SDS011;2982;42.684;23.356;2023-05-31T01:37:49;10.18;;;9.25;;
5912;SDS011;2982;42.684;23.356;2023-05-31T01:40:14;10.68;;;9.48;;
5912;SDS011;2982;42.684;23.356;2023-05-31T01:42:42;11.63;;;10.43;;
5912;SDS011;2982;42.684;23.356;2023-05-31T01:45:10;12.43;;;10.70;;
5912;SDS011;2982;42.684;23.356;2023-05-31T01:47:37;8.27;;;7.53;;
5912;SDS011;2982;42.684;23.356;2023-05-31T01:50:05;7.00;;;6.38;;
5912;SDS011;2982;42.684;23.356;2023-05-31T01:52:31;7.05;;;6.40;;
5912;SDS011;2982;42.684;23.356;2023-05-31T01:54:58;9.10;;;6.60;;
5912;SDS011;2982;42.684;23.356;2023-05-31T01:57:23;8.20;;;7.60;;
5912;SDS011;2982;42.684;23.356;2023-05-31T01:59:50;8.02;;;7.20;;
5912;SDS011;2982;42.684;23.356;2023-05-31T02:02:17;7.57;;;7.00;;
5912;SDS011;2982;42.684;23.356;2023-05-31T02:04:42;7.95;;;7.38;;
5912;SDS011;2982;42.684;23.356;2023-05-31T02:07:07;9.70;;;8.07;;
5912;SDS011;2982;42.684;23.356;2023-05-31T02:09:33;8.05;;;7.35;;
5912;SDS011;2982;42.684;23.356;2023-05-31T02:11:58;8.35;;;7.57;;
5912;SDS011;2982;42.684;23.356;2023-05-31T02:14:23;8.05;;;7.25;;
5912;SDS011;2982;42.684;23.356;2023-05-31T02:16:48;7.57;;;6.88;;
5912;SDS011;2982;42.684;23.356;2023-05-31T02:19:14;14.57;;;7.57;;
5912;SDS011;2982;42.684;23.356;2023-05-31T02:21:39;11.32;;;6.57;;
5912;SDS011;2982;42.684;23.356;2023-05-31T02:24:05;9.48;;;7.47;;
5912;SDS011;2982;42.684;23.356;2023-05-31T02:26:31;8.43;;;7.72;;
5912;SDS011;2982;42.684;23.356;2023-05-31T02:28:56;8.60;;;7.88;;
5912;SDS011;2982;42.684;23.356;2023-05-31T02:31:21;8.23;;;7.47;;
5912;SDS011;2982;42.684;23.356;2023-05-31T02:33:47;7.43;;;6.80;;
5912;SDS011;2982;42.684;23.356;2023-05-31T02:36:12;9.23;;;8.32;;
5912;SDS011;2982;42.684;23.356;2023-05-31T02:38:38;9.55;;;7.47;;
5912;SDS011;2982;42.684;23.356;2023-05-31T02:41:04;9.80;;;9.02;;
5912;SDS011;2982;42.684;23.356;2023-05-31T02:43:29;10.23;;;9.20;;
5912;SDS011;2982;42.684;23.356;2023-05-31T02:45:54;13.27;;;8.95;;
5912;SDS011;2982;42.684;23.356;2023-05-31T02:48:19;12.95;;;9.07;;
5912;SDS011;2982;42.684;23.356;2023-05-31T02:50:45;9.23;;;8.32;;
5912;SDS011;2982;42.684;23.356;2023-05-31T02:53:10;9.25;;;8.55;;
5912;SDS011;2982;42.684;23.356;2023-05-31T02:55:35;9.35;;;8.55;;
5912;SDS011;2982;42.684;23.356;2023-05-31T02:58:00;8.40;;;7.38;;
5912;SDS011;2982;42.684;23.356;2023-05-31T03:00:26;8.75;;;7.75;;
5912;SDS011;2982;42.684;23.356;2023-05-31T03:02:51;9.43;;;7.90;;
5912;SDS011;2982;42.684;23.356;2023-05-31T03:05:16;7.72;;;7.13;;
5912;SDS011;2982;42.684;23.356;2023-05-31T03:07:42;7.55;;;6.85;;
5912;SDS011;2982;42.684;23.356;2023-05-31T03:10:07;8.30;;;7.18;;
5912;SDS011;2982;42.684;23.356;2023-05-31T03:12:33;11.52;;;7.25;;
5912;SDS011;2982;42.684;23.356;2023-05-31T03:14:58;9.88;;;8.18;;
5912;SDS011;2982;42.684;23.356;2023-05-31T03:17:24;8.95;;;8.15;;
5912;SDS011;2982;42.684;23.356;2023-05-31T03:19:49;8.95;;;7.97;;
5912;SDS011;2982;42.684;23.356;2023-05-31T03:22:14;8.05;;;7.35;;
5912;SDS011;2982;42.684;23.356;2023-05-31T03:24:40;8.18;;;7.40;;
5912;SDS011;2982;42.684;23.356;2023-05-31T03:27:05;6.90;;;6.30;;
5912;SDS011;2982;42.684;23.356;2023-05-31T03:29:30;9.40;;;7.93;;
5912;SDS011;2982;42.684;23.356;2023-05-31T03:31:56;8.85;;;7.95;;
5912;SDS011;2982;42.684;23.356;2023-05-31T03:34:21;9.18;;;8.18;;
5912;SDS011;2982;42.684;23.356;2023-05-31T03:36:46;11.68;;;8.88;;
5912;SDS011;2982;42.684;23.356;2023-05-31T03:39:12;8.85;;;8.00;;
5912;SDS011;2982;42.684;23.356;2023-05-31T03:41:37;10.38;;;9.35;;
5912;SDS011;2982;42.684;23.356;2023-05-31T03:44:02;13.10;;;8.88;;
5912;SDS011;2982;42.684;23.356;2023-05-31T03:46:27;8.60;;;7.65;;
5912;SDS011;2982;42.684;23.356;2023-05-31T03:48:53;7.68;;;7.03;;
5912;SDS011;2982;42.684;23.356;2023-05-31T03:51:18;11.15;;;7.10;;
5912;SDS011;2982;42.684;23.356;2023-05-31T03:53:43;7.60;;;7.00;;
5912;SDS011;2982;42.684;23.356;2023-05-31T03:56:09;7.60;;;6.60;;
5912;SDS011;2982;42.684;23.356;2023-05-31T03:58:34;8.27;;;6.55;;
5912;SDS011;2982;42.684;23.356;2023-05-31T04:00:59;8.20;;;5.82;;
5912;SDS011;2982;42.684;23.356;2023-05-31T04:03:24;6.43;;;5.75;;
5912;SDS011;2982;42.684;23.356;2023-05-31T04:05:50;6.60;;;5.70;;
5912;SDS011;2982;42.684;23.356;2023-05-31T04:08:15;5.97;;;5.35;;
5912;SDS011;2982;42.684;23.356;2023-05-31T04:10:40;6.82;;;4.90;;
5912;SDS011;2982;42.684;23.356;2023-05-31T04:13:06;5.00;;;4.55;;
5912;SDS011;2982;42.684;23.356;2023-05-31T04:15:31;5.43;;;5.03;;
5912;SDS011;2982;42.684;23.356;2023-05-31T04:17:56;5.88;;;5.28;;
5912;SDS011;2982;42.684;23.356;2023-05-31T04:20:21;8.75;;;6.00;;
5912;SDS011;2982;42.684;23.356;2023-05-31T04:22:47;6.13;;;5.20;;
5912;SDS011;2982;42.684;23.356;2023-05-31T04:25:12;8.60;;;6.75;;
5912;SDS011;2982;42.684;23.356;2023-05-31T04:27:38;11.60;;;7.63;;
5912;SDS011;2982;42.684;23.356;2023-05-31T04:30:04;7.00;;;6.40;;
5912;SDS011;2982;42.684;23.356;2023-05-31T04:32:30;8.18;;;5.97;;
5912;SDS011;2982;42.684;23.356;2023-05-31T04:34:56;5.22;;;4.85;;
5912;SDS011;2982;42.684;23.356;2023-05-31T04:37:21;5.72;;;5.32;;
5912;SDS011;2982;42.684;23.356;2023-05-31T04:39:46;8.57;;;6.40;;
5912;SDS011;2982;42.684;23.356;2023-05-31T04:42:11;6.97;;;6.28;;
5912;SDS011;2982;42.684;23.356;2023-05-31T04:44:37;9.10;;;7.07;;
5912;SDS011;2982;42.684;23.356;2023-05-31T04:47:02;8.07;;;6.75;;
5912;SDS011;2982;42.684;23.356;2023-05-31T04:49:28;6.40;;;5.88;;
5912;SDS011;2982;42.684;23.356;2023-05-31T04:51:53;7.03;;;6.30;;
5912;SDS011;2982;42.684;23.356;2023-05-31T04:54:19;12.05;;;5.80;;
5912;SDS011;2982;42.684;23.356;2023-05-31T04:56:44;6.22;;;5.70;;
5912;SDS011;2982;42.684;23.356;2023-05-31T04:59:09;8.77;;;5.75;;
5912;SDS011;2982;42.684;23.356;2023-05-31T05:01:34;7.95;;;5.75;;
5912;SDS011;2982;42.684;23.356;2023-05-31T05:04:00;7.72;;;6.40;;
5912;SDS011;2982;42.684;23.356;2023-05-31T05:06:25;10.60;;;7.22;;
5912;SDS011;2982;42.684;23.356;2023-05-31T05:08:50;8.35;;;5.90;;
5912;SDS011;2982;42.684;23.356;2023-05-31T05:11:16;14.48;;;7.45;;
5912;SDS011;2982;42.684;23.356;2023-05-31T05:13:42;16.65;;;7.90;;
5912;SDS011;2982;42.684;23.356;2023-05-31T05:16:07;37.63;;;25.05;;
5912;SDS011;2982;42.684;23.356;2023-05-31T05:18:33;14.82;;;9.65;;
5912;SDS011;2982;42.684;23.356;2023-05-31T05:20:58;10.00;;;8.82;;
5912;SDS011;2982;42.684;23.356;2023-05-31T05:23:23;23.55;;;16.17;;
5912;SDS011;2982;42.684;23.356;2023-05-31T05:25:49;8.10;;;7.38;;
5912;SDS011;2982;42.684;23.356;2023-05-31T05:28:14;9.27;;;7.63;;
5912;SDS011;2982;42.684;23.356;2023-05-31T05:30:40;7.93;;;7.20;;
5912;SDS011;2982;42.684;23.356;2023-05-31T05:33:05;11.52;;;7.10;;
5912;SDS011;2982;42.684;23.356;2023-05-31T05:35:31;7.15;;;6.55;;
5912;SDS011;2982;42.684;23.356;2023-05-31T05:37:56;12.00;;;7.38;;
5912;SDS011;2982;42.684;23.356;2023-05-31T05:40:21;8.52;;;7.53;;
5912;SDS011;2982;42.684;23.356;2023-05-31T05:42:47;19.20;;;8.73;;
5912;SDS011;2982;42.684;23.356;2023-05-31T05:45:13;22.65;;;10.02;;
5912;SDS011;2982;42.684;23.356;2023-05-31T05:47:38;17.80;;;9.68;;
5912;SDS011;2982;42.684;23.356;2023-05-31T05:50:03;15.20;;;9.82;;
5912;SDS011;2982;42.684;23.356;2023-05-31T05:52:29;13.93;;;9.50;;
5912;SDS011;2982;42.684;23.356;2023-05-31T05:54:55;11.43;;;9.50;;
5912;SDS011;2982;42.684;23.356;2023-05-31T05:57:20;10.68;;;8.43;;
5912;SDS011;2982;42.684;23.356;2023-05-31T05:59:46;9.40;;;7.30;;
5912;SDS011;2982;42.684;23.356;2023-05-31T06:02:12;9.60;;;7.50;;
5912;SDS011;2982;42.684;23.356;2023-05-31T06:04:37;10.00;;;7.57;;
5912;SDS011;2982;42.684;23.356;2023-05-31T06:07:02;9.80;;;7.45;;
5912;SDS011;2982;42.684;23.356;2023-05-31T06:09:28;8.43;;;7.72;;
5912;SDS011;2982;42.684;23.356;2023-05-31T06:11:53;11.48;;;7.05;;
5912;SDS011;2982;42.684;23.356;2023-05-31T06:14:18;11.75;;;7.55;;
5912;SDS011;2982;42.684;23.356;2023-05-31T06:16:43;10.00;;;7.50;;
5912;SDS011;2982;42.684;23.356;2023-05-31T06:19:09;19.92;;;9.63;;
5912;SDS011;2982;42.684;23.356;2023-05-31T06:21:34;14.63;;;9.65;;
5912;SDS011;2982;42.684;23.356;2023-05-31T06:24:00;12.88;;;9.80;;
5912;SDS011;2982;42.684;23.356;2023-05-31T06:26:26;13.57;;;10.65;;
5912;SDS011;2982;42.684;23.356;2023-05-31T06:28:51;9.93;;;8.88;;
5912;SDS011;2982;42.684;23.356;2023-05-31T06:31:16;10.23;;;8.50;;
5912;SDS011;2982;42.684;23.356;2023-05-31T06:33:42;13.75;;;9.85;;
5912;SDS011;2982;42.684;23.356;2023-05-31T06:36:07;13.57;;;8.52;;
5912;SDS011;2982;42.684;23.356;2023-05-31T06:38:32;20.98;;;9.05;;
5912;SDS011;2982;42.684;23.356;2023-05-31T06:40:57;14.30;;;8.63;;
5912;SDS011;2982;42.684;23.356;2023-05-31T06:43:23;9.88;;;7.97;;
5912;SDS011;2982;42.684;23.356;2023-05-31T06:45:49;10.45;;;8.07;;
5912;SDS011;2982;42.684;23.356;2023-05-31T06:48:15;9.60;;;8.30;;
5912;SDS011;2982;42.684;23.356;2023-05-31T06:50:40;11.15;;;9.07;;
5912;SDS011;2982;42.684;23.356;2023-05-31T06:53:05;14.05;;;9.85;;
5912;SDS011;2982;42.684;23.356;2023-05-31T06:55:30;17.92;;;8.80;;
5912;SDS011;2982;42.684;23.356;2023-05-31T06:57:56;9.00;;;7.43;;
5912;SDS011;2982;42.684;23.356;2023-05-31T07:00:21;19.00;;;12.38;;
5912;SDS011;2982;42.684;23.356;2023-05-31T07:02:47;7.50;;;6.97;;
5912;SDS011;2982;42.684;23.356;2023-05-31T07:05:13;9.95;;;9.15;;
5912;SDS011;2982;42.684;23.356;2023-05-31T07:07:38;17.67;;;9.77;;
5912;SDS011;2982;42.684;23.356;2023-05-31T07:10:03;9.95;;;8.93;;
5912;SDS011;2982;42.684;23.356;2023-05-31T07:12:29;18.50;;;11.25;;
5912;SDS011;2982;42.684;23.356;2023-05-31T07:14:54;11.32;;;7.15;;
5912;SDS011;2982;42.684;23.356;2023-05-31T07:17:19;12.15;;;7.65;;
5912;SDS011;2982;42.684;23.356;2023-05-31T07:19:45;11.85;;;7.70;;
5912;SDS011;2982;42.684;23.356;2023-05-31T07:22:15;13.70;;;7.47;;
5912;SDS011;2982;42.684;23.356;2023-05-31T07:24:41;10.50;;;6.15;;
5912;SDS011;2982;42.684;23.356;2023-05-31T07:27:07;7.30;;;6.38;;
5912;SDS011;2982;42.684;23.356;2023-05-31T07:29:33;8.73;;;6.25;;
5912;SDS011;2982;42.684;23.356;2023-05-31T07:31:58;7.15;;;6.15;;
5912;SDS011;2982;42.684;23.356;2023-05-31T07:34:24;9.18;;;7.35;;
5912;SDS011;2982;42.684;23.356;2023-05-31T07:36:49;7.30;;;6.70;;
5912;SDS011;2982;42.684;23.356;2023-05-31T07:39:14;13.52;;;6.93;;
5912;SDS011;2982;42.684;23.356;2023-05-31T07:41:40;8.30;;;7.60;;
5912;SDS011;2982;42.684;23.356;2023-05-31T07:44:05;11.00;;;8.38;;
5912;SDS011;2982;42.684;23.356;2023-05-31T07:46:30;8.63;;;7.72;;
5912;SDS011;2982;42.684;23.356;2023-05-31T07:48:55;8.85;;;8.00;;
5912;SDS011;2982;42.684;23.356;2023-05-31T07:51:21;13.38;;;8.30;;
5912;SDS011;2982;42.684;23.356;2023-05-31T07:53:46;9.88;;;7.22;;
5912;SDS011;2982;42.684;23.356;2023-05-31T07:56:12;10.38;;;9.20;;
5912;SDS011;2982;42.684;23.356;2023-05-31T07:58:38;6.85;;;6.22;;
5912;SDS011;2982;42.684;23.356;2023-05-31T08:01:03;6.63;;;6.13;;
5912;SDS011;2982;42.684;23.356;2023-05-31T08:03:29;8.18;;;7.22;;
5912;SDS011;2982;42.684;23.356;2023-05-31T08:05:54;6.40;;;6.00;;
5912;SDS011;2982;42.684;23.356;2023-05-31T08:08:19;7.50;;;6.00;;
5912;SDS011;2982;42.684;23.356;2023-05-31T08:10:45;5.70;;;5.30;;
5912;SDS011;2982;42.684;23.356;2023-05-31T08:13:10;6.20;;;4.85;;
5912;SDS011;2982;42.684;23.356;2023-05-31T08:15:35;5.53;;;4.72;;
5912;SDS011;2982;42.684;23.356;2023-05-31T08:18:01;5.10;;;4.75;;
5912;SDS011;2982;42.684;23.356;2023-05-31T08:20:26;6.53;;;4.65;;
5912;SDS011;2982;42.684;23.356;2023-05-31T08:22:51;5.10;;;4.60;;
5912;SDS011;2982;42.684;23.356;2023-05-31T08:25:16;5.35;;;4.22;;
5912;SDS011;2982;42.684;23.356;2023-05-31T08:27:42;5.10;;;4.70;;
5912;SDS011;2982;42.684;23.356;2023-05-31T08:30:10;5.38;;;4.43;;
5912;SDS011;2982;42.684;23.356;2023-05-31T08:32:36;4.65;;;4.35;;
5912;SDS011;2982;42.684;23.356;2023-05-31T08:35:02;4.82;;;4.43;;
5912;SDS011;2982;42.684;23.356;2023-05-31T08:37:28;4.85;;;3.97;;
5912;SDS011;2982;42.684;23.356;2023-05-31T08:39:53;5.35;;;4.78;;
5912;SDS011;2982;42.684;23.356;2023-05-31T08:42:21;5.15;;;4.75;;
5912;SDS011;2982;42.684;23.356;2023-05-31T08:44:50;6.72;;;4.55;;
5912;SDS011;2982;42.684;23.356;2023-05-31T08:47:27;7.68;;;5.28;;
5912;SDS011;2982;42.684;23.356;2023-05-31T08:50:08;4.32;;;3.92;;
5912;SDS011;2982;42.684;23.356;2023-05-31T08:52:33;5.47;;;4.55;;
5912;SDS011;2982;42.684;23.356;2023-05-31T08:55:00;5.20;;;4.72;;
5912;SDS011;2982;42.684;23.356;2023-05-31T08:57:26;5.18;;;4.72;;
5912;SDS011;2982;42.684;23.356;2023-05-31T08:59:53;5.35;;;4.70;;
5912;SDS011;2982;42.684;23.356;2023-05-31T09:02:19;7.25;;;5.65;;
5912;SDS011;2982;42.684;23.356;2023-05-31T09:04:45;5.63;;;4.65;;
5912;SDS011;2982;42.684;23.356;2023-05-31T09:07:10;4.38;;;4.07;;
5912;SDS011;2982;42.684;23.356;2023-05-31T09:09:36;5.05;;;4.18;;
5912;SDS011;2982;42.684;23.356;2023-05-31T09:12:01;5.15;;;4.75;;
5912;SDS011;2982;42.684;23.356;2023-05-31T09:14:27;5.40;;;4.55;;
5912;SDS011;2982;42.684;23.356;2023-05-31T09:16:52;5.15;;;4.70;;
5912;SDS011;2982;42.684;23.356;2023-05-31T09:19:18;6.45;;;4.60;;
5912;SDS011;2982;42.684;23.356;2023-05-31T09:21:44;6.55;;;4.45;;
5912;SDS011;2982;42.684;23.356;2023-05-31T09:24:10;4.43;;;4.13;;
5912;SDS011;2982;42.684;23.356;2023-05-31T09:26:47;6.93;;;4.82;;
5912;SDS011;2982;42.684;23.356;2023-05-31T09:29:15;7.53;;;4.38;;
5912;SDS011;2982;42.684;23.356;2023-05-31T09:31:41;7.55;;;5.53;;
5912;SDS011;2982;42.684;23.356;2023-05-31T09:34:12;5.30;;;3.60;;
5912;SDS011;2982;42.684;23.356;2023-05-31T09:36:48;4.85;;;4.32;;
5912;SDS011;2982;42.684;23.356;2023-05-31T09:39:15;4.88;;;4.38;;
5912;SDS011;2982;42.684;23.356;2023-05-31T09:41:40;4.40;;;4.20;;
5912;SDS011;2982;42.684;23.356;2023-05-31T09:44:07;5.20;;;4.88;;
5912;SDS011;2982;42.684;23.356;2023-05-31T09:46:32;5.03;;;4.63;;
5912;SDS011;2982;42.684;23.356;2023-05-31T09:49:05;5.72;;;5.05;;
5912;SDS011;2982;42.684;23.356;2023-05-31T09:51:31;5.30;;;4.80;;
5912;SDS011;2982;42.684;23.356;2023-05-31T09:53:59;9.45;;;5.10;;
5912;SDS011;2982;42.684;23.356;2023-05-31T09:56:26;8.10;;;5.35;;
5912;SDS011;2982;42.684;23.356;2023-05-31T09:58:55;8.52;;;5.53;;
5912;SDS011;2982;42.684;23.356;2023-05-31T10:01:21;5.75;;;5.25;;
5912;SDS011;2982;42.684;23.356;2023-05-31T10:03:48;8.25;;;5.90;;
5912;SDS011;2982;42.684;23.356;2023-05-31T10:06:15;6.72;;;5.95;;
5912;SDS011;2982;42.684;23.356;2023-05-31T10:08:42;7.32;;;6.28;;
5912;SDS011;2982;42.684;23.356;2023-05-31T10:11:08;6.72;;;6.22;;
5912;SDS011;2982;42.684;23.356;2023-05-31T10:13:34;8.30;;;5.60;;
5912;SDS011;2982;42.684;23.356;2023-05-31T10:16:04;7.35;;;5.72;;
5912;SDS011;2982;42.684;23.356;2023-05-31T10:18:31;6.78;;;5.15;;
5912;SDS011;2982;42.684;23.356;2023-05-31T10:23:48;8.48;;;5.15;;
5912;SDS011;2982;42.684;23.356;2023-05-31T10:26:20;5.97;;;5.43;;
5912;SDS011;2982;42.684;23.356;2023-05-31T10:28:59;4.97;;;4.57;;
5912;SDS011;2982;42.684;23.356;2023-05-31T10:31:31;5.55;;;4.72;;
5912;SDS011;2982;42.684;23.356;2023-05-31T10:34:14;5.25;;;3.38;;
5912;SDS011;2982;42.684;23.356;2023-05-31T10:36:43;7.60;;;3.78;;
5912;SDS011;2982;42.684;23.356;2023-05-31T10:39:10;3.38;;;3.17;;
5912;SDS011;2982;42.684;23.356;2023-05-31T10:41:44;4.40;;;3.78;;
5912;SDS011;2982;42.684;23.356;2023-05-31T10:44:16;3.55;;;3.05;;
5912;SDS011;2982;42.684;23.356;2023-05-31T10:46:45;7.95;;;4.03;;
5912;SDS011;2982;42.684;23.356;2023-05-31T10:49:15;6.35;;;3.30;;
5912;SDS011;2982;42.684;23.356;2023-05-31T10:51:44;5.60;;;3.10;;
5912;SDS011;2982;42.684;23.356;2023-05-31T10:54:20;3.17;;;2.97;;
5912;SDS011;2982;42.684;23.356;2023-05-31T10:56:55;17.10;;;3.60;;
5912;SDS011;2982;42.684;23.356;2023-05-31T10:59:22;4.00;;;3.45;;
5912;SDS011;2982;42.684;23.356;2023-05-31T11:01:48;3.90;;;3.20;;
5912;SDS011;2982;42.684;23.356;2023-05-31T11:04:20;6.45;;;2.90;;
5912;SDS011;2982;42.684;23.356;2023-05-31T11:06:46;5.88;;;3.50;;
5912;SDS011;2982;42.684;23.356;2023-05-31T11:09:16;6.30;;;4.30;;
5912;SDS011;2982;42.684;23.356;2023-05-31T11:19:13;4.85;;;3.38;;
5912;SDS011;2982;42.684;23.356;2023-05-31T11:24:24;3.60;;;3.30;;
5912;SDS011;2982;42.684;23.356;2023-05-31T11:26:52;4.32;;;3.25;;
5912;SDS011;2982;42.684;23.356;2023-05-31T11:29:18;6.15;;;3.40;;
5912;SDS011;2982;42.684;23.356;2023-05-31T11:34:21;2.97;;;2.75;;
5912;SDS011;2982;42.684;23.356;2023-05-31T11:36:51;4.03;;;3.63;;
5912;SDS011;2982;42.684;23.356;2023-05-31T11:39:17;3.70;;;3.17;;
5912;SDS011;2982;42.684;23.356;2023-05-31T11:41:43;3.75;;;3.47;;
5912;SDS011;2982;42.684;23.356;2023-05-31T11:44:13;12.35;;;3.92;;
5912;SDS011;2982;42.684;23.356;2023-05-31T11:46:42;17.02;;;5.10;;
5912;SDS011;2982;42.684;23.356;2023-05-31T11:49:10;5.32;;;4.18;;
5912;SDS011;2982;42.684;23.356;2023-05-31T11:51:36;6.68;;;6.00;;
5912;SDS011;2982;42.684;23.356;2023-05-31T11:54:02;14.35;;;4.68;;
5912;SDS011;2982;42.684;23.356;2023-05-31T11:56:31;15.85;;;5.53;;
5912;SDS011;2982;42.684;23.356;2023-05-31T11:58:57;6.65;;;5.57;;
5912;SDS011;2982;42.684;23.356;2023-05-31T12:01:22;4.85;;;4.32;;
5912;SDS011;2982;42.684;23.356;2023-05-31T12:03:47;10.80;;;4.88;;
5912;SDS011;2982;42.684;23.356;2023-05-31T12:06:12;11.13;;;5.85;;
5912;SDS011;2982;42.684;23.356;2023-05-31T12:08:38;14.35;;;6.28;;
5912;SDS011;2982;42.684;23.356;2023-05-31T12:11:03;8.40;;;4.85;;
5912;SDS011;2982;42.684;23.356;2023-05-31T12:13:28;8.68;;;6.53;;
5912;SDS011;2982;42.684;23.356;2023-05-31T12:15:54;7.22;;;5.05;;
5912;SDS011;2982;42.684;23.356;2023-05-31T12:18:19;5.78;;;4.95;;
5912;SDS011;2982;42.684;23.356;2023-05-31T12:20:44;10.43;;;5.97;;
5912;SDS011;2982;42.684;23.356;2023-05-31T12:23:14;13.70;;;6.25;;
5912;SDS011;2982;42.684;23.356;2023-05-31T12:25:47;8.73;;;5.90;;
5912;SDS011;2982;42.684;23.356;2023-05-31T12:28:16;7.00;;;5.50;;
5912;SDS011;2982;42.684;23.356;2023-05-31T12:30:43;8.40;;;6.55;;
5912;SDS011;2982;42.684;23.356;2023-05-31T12:33:09;7.10;;;6.40;;
5912;SDS011;2982;42.684;23.356;2023-05-31T12:35:42;9.75;;;7.05;;
5912;SDS011;2982;42.684;23.356;2023-05-31T12:38:08;13.20;;;8.25;;
5912;SDS011;2982;42.684;23.356;2023-05-31T12:40:40;14.63;;;8.10;;
5912;SDS011;2982;42.684;23.356;2023-05-31T12:43:06;13.40;;;7.35;;
5912;SDS011;2982;42.684;23.356;2023-05-31T12:45:31;11.63;;;7.03;;
5912;SDS011;2982;42.684;23.356;2023-05-31T12:47:57;9.80;;;6.55;;
5912;SDS011;2982;42.684;23.356;2023-05-31T12:50:23;13.55;;;7.07;;
5912;SDS011;2982;42.684;23.356;2023-05-31T12:52:55;17.88;;;7.15;;
5912;SDS011;2982;42.684;23.356;2023-05-31T12:55:21;11.45;;;7.18;;
5912;SDS011;2982;42.684;23.356;2023-05-31T12:57:47;16.08;;;6.10;;
5912;SDS011;2982;42.684;23.356;2023-05-31T13:00:12;7.88;;;5.93;;
5912;SDS011;2982;42.684;23.356;2023-05-31T13:02:38;7.38;;;5.47;;
5912;SDS011;2982;42.684;23.356;2023-05-31T13:05:04;8.27;;;6.05;;
5912;SDS011;2982;42.684;23.356;2023-05-31T13:07:30;13.05;;;7.00;;
5912;SDS011;2982;42.684;23.356;2023-05-31T13:09:55;13.18;;;7.78;;
5912;SDS011;2982;42.684;23.356;2023-05-31T13:12:21;12.98;;;6.70;;
5912;SDS011;2982;42.684;23.356;2023-05-31T13:14:46;19.02;;;6.78;;
5912;SDS011;2982;42.684;23.356;2023-05-31T13:17:12;11.73;;;6.80;;
5912;SDS011;2982;42.684;23.356;2023-05-31T13:19:38;8.88;;;6.40;;
5912;SDS011;2982;42.684;23.356;2023-05-31T13:22:03;6.35;;;5.72;;
5912;SDS011;2982;42.684;23.356;2023-05-31T13:24:29;8.85;;;7.03;;
5912;SDS011;2982;42.684;23.356;2023-05-31T13:26:54;5.00;;;4.55;;
5912;SDS011;2982;42.684;23.356;2023-05-31T13:29:20;6.55;;;5.80;;
5912;SDS011;2982;42.684;23.356;2023-05-31T13:31:45;7.25;;;5.75;;
5912;SDS011;2982;42.684;23.356;2023-05-31T13:34:10;6.22;;;5.65;;
5912;SDS011;2982;42.684;23.356;2023-05-31T13:36:35;7.20;;;4.78;;
5912;SDS011;2982;42.684;23.356;2023-05-31T13:39:01;8.55;;;5.30;;
5912;SDS011;2982;42.684;23.356;2023-05-31T13:41:26;5.80;;;5.18;;
5912;SDS011;2982;42.684;23.356;2023-05-31T13:43:51;6.30;;;5.80;;
5912;SDS011;2982;42.684;23.356;2023-05-31T13:46:17;8.13;;;5.65;;
5912;SDS011;2982;42.684;23.356;2023-05-31T13:48:43;9.27;;;5.43;;
5912;SDS011;2982;42.684;23.356;2023-05-31T13:51:09;6.30;;;5.15;;
5912;SDS011;2982;42.684;23.356;2023-05-31T13:53:35;6.28;;;5.68;;
5912;SDS011;2982;42.684;23.356;2023-05-31T13:56:01;9.85;;;5.90;;
5912;SDS011;2982;42.684;23.356;2023-05-31T13:58:26;13.93;;;6.32;;
5912;SDS011;2982;42.684;23.356;2023-05-31T14:00:52;7.88;;;6.00;;
5912;SDS011;2982;42.684;23.356;2023-05-31T14:03:17;10.13;;;7.45;;
5912;SDS011;2982;42.684;23.356;2023-05-31T14:05:43;7.32;;;6.38;;
5912;SDS011;2982;42.684;23.356;2023-05-31T14:08:09;9.63;;;6.70;;
5912;SDS011;2982;42.684;23.356;2023-05-31T14:10:34;6.68;;;6.05;;
5912;SDS011;2982;42.684;23.356;2023-05-31T14:13:00;6.70;;;5.25;;
5912;SDS011;2982;42.684;23.356;2023-05-31T14:15:25;14.73;;;4.57;;
5912;SDS011;2982;42.684;23.356;2023-05-31T14:17:51;5.93;;;5.05;;
5912;SDS011;2982;42.684;23.356;2023-05-31T14:20:16;5.93;;;4.80;;
5912;SDS011;2982;42.684;23.356;2023-05-31T14:22:41;6.15;;;4.90;;
5912;SDS011;2982;42.684;23.356;2023-05-31T14:25:07;10.23;;;5.43;;
5912;SDS011;2982;42.684;23.356;2023-05-31T14:27:32;5.80;;;4.88;;
5912;SDS011;2982;42.684;23.356;2023-05-31T14:29:57;5.25;;;4.80;;
5912;SDS011;2982;42.684;23.356;2023-05-31T14:32:22;6.18;;;4.50;;
5912;SDS011;2982;42.684;23.356;2023-05-31T14:34:48;5.50;;;5.00;;
5912;SDS011;2982;42.684;23.356;2023-05-31T14:37:13;4.97;;;4.57;;
5912;SDS011;2982;42.684;23.356;2023-05-31T14:39:38;5.82;;;4.97;;
5912;SDS011;2982;42.684;23.356;2023-05-31T14:42:04;5.35;;;4.80;;
5912;SDS011;2982;42.684;23.356;2023-05-31T14:44:30;8.15;;;4.97;;
5912;SDS011;2982;42.684;23.356;2023-05-31T14:46:55;5.78;;;4.53;;
5912;SDS011;2982;42.684;23.356;2023-05-31T14:49:21;8.93;;;5.43;;
5912;SDS011;2982;42.684;23.356;2023-05-31T14:51:47;7.32;;;5.18;;
5912;SDS011;2982;42.684;23.356;2023-05-31T14:54:18;6.18;;;5.57;;
5912;SDS011;2982;42.684;23.356;2023-05-31T14:56:44;10.32;;;6.10;;
5912;SDS011;2982;42.684;23.356;2023-05-31T14:59:10;14.10;;;6.38;;
5912;SDS011;2982;42.684;23.356;2023-05-31T15:01:39;10.90;;;7.88;;
5912;SDS011;2982;42.684;23.356;2023-05-31T15:04:04;15.13;;;7.47;;
5912;SDS011;2982;42.684;23.356;2023-05-31T15:06:30;11.20;;;7.57;;
5912;SDS011;2982;42.684;23.356;2023-05-31T15:08:55;7.40;;;6.63;;
5912;SDS011;2982;42.684;23.356;2023-05-31T15:11:20;11.98;;;7.53;;